Terminal Aerodrome Forecast
Issued by NWS

Home | Current Version | Previous Version | Text Only | Print | Product List | Glossary On
Versions: 1 2 3 4 5 6 7 8 9 10 11 12 13 14 15 16 17 18
000
FTUS42 KGSP 242300
TAFAND
TAF
KAND 242333Z 2500/2524 24008KT P6SM SCT040 BKN200
     FM250400 26004KT P6SM SCT060
     FM250800 34003KT 5SM BR FEW060
     FM251200 02003KT P6SM FEW010 SCT060
     FM251700 23004KT P6SM SCT060=

USA.gov is the U.S. government's official web portal to all federal, state and local government web resources and services.